Time;durP1;ratioP1;P1;durP2;ratioP2;P2;SDS_P1;SDS_P2;PMS_P1;PMS_P2;Temp;Humidity;BMP_temperature;BMP_pressure;BME280_temperature;BME280_humidity;BME280_pressure;Samples;Min_cycle;Max_cycle;Signal;HPM_P1;HPM_P2
2021/08/03 00:01:46;;;;;;;3.77;1.70;;;;;;;;;;5054151;28;20410;-78
2021/08/03 00:04:13;;;;;;;1.50;1.40;;;;;;;;;;5053857;28;20418;-79
2021/08/03 00:06:53;;;;;;;3.43;1.67;;;;;;;;;;5054034;28;20423;-79
2021/08/03 00:09:19;;;;;;;1.50;1.40;;;;;;;;;;5053756;28;20417;-79
2021/08/03 00:11:46;;;;;;;1.33;1.23;;;;;;;;;;5053936;28;20894;-79
2021/08/03 00:17:16;;;;;;;2.20;1.30;;;;;;;;;;5053822;28;20460;-79
2021/08/03 00:19:43;;;;;;;1.30;1.20;;;;;;;;;;5053773;28;20485;-79
2021/08/03 00:22:09;;;;;;;1.50;1.40;;;;;;;;;;5053702;28;20533;-77
2021/08/03 00:24:36;;;;;;;1.20;1.10;;;;;;;;;;5053555;28;20415;-78
2021/08/03 00:27:03;;;;;;;1.43;1.33;;;;;;;;;;5053461;28;20410;-79
2021/08/03 00:29:29;;;;;;;1.70;1.43;;;;;;;;;;5053465;28;20501;-79
2021/08/03 00:31:56;;;;;;;1.40;1.30;;;;;;;;;;5053633;28;20451;-79
2021/08/03 00:34:22;;;;;;;1.30;1.20;;;;;;;;;;5053561;28;20478;-79
2021/08/03 00:36:48;;;;;;;2.87;1.30;;;;;;;;;;5053556;28;20740;-78
2021/08/03 00:39:14;;;;;;;3.80;1.30;;;;;;;;;;5053135;28;20558;-79
2021/08/03 00:41:44;;;;;;;1.63;1.53;;;;;;;;;;5053706;28;20418;-79
2021/08/03 00:47:14;;;;;;;2.20;1.30;;;;;;;;;;5053619;28;20429;-78
2021/08/03 00:49:41;;;;;;;2.50;1.30;;;;;;;;;;5063366;28;20411;-77
2021/08/03 00:52:09;;;;;;;1.63;1.50;;;;;;;;;;5063397;28;20433;-79
2021/08/03 00:54:36;;;;;;;1.90;1.40;;;;;;;;;;5055654;28;20433;-79
2021/08/03 00:57:02;;;;;;;2.43;1.20;;;;;;;;;;5054048;28;20486;-77
2021/08/03 01:02:31;;;;;;;1.30;1.20;;;;;;;;;;5051392;28;20445;-77
2021/08/03 01:04:57;;;;;;;1.47;1.10;;;;;;;;;;5053340;28;20407;-78
2021/08/03 01:07:23;;;;;;;1.20;1.10;;;;;;;;;;5053006;28;20415;-78
2021/08/03 01:09:55;;;;;;;1.23;1.13;;;;;;;;;;5053315;28;20421;-78
2021/08/03 01:12:38;;;;;;;1.47;1.37;;;;;;;;;;5052710;28;20411;-78
2021/08/03 01:15:16;;;;;;;1.87;1.50;;;;;;;;;;5052892;28;20950;-77
2021/08/03 01:17:42;;;;;;;2.23;1.40;;;;;;;;;;5052905;28;20414;-78
2021/08/03 01:20:12;;;;;;;1.50;1.40;;;;;;;;;;5052916;28;20466;-77
2021/08/03 01:22:59;;;;;;;1.90;1.10;;;;;;;;;;5052655;28;20415;-76
2021/08/03 01:25:34;;;;;;;1.20;1.10;;;;;;;;;;5051660;28;20438;-78
2021/08/03 01:28:18;;;;;;;1.60;1.50;;;;;;;;;;5052565;28;20426;-79
2021/08/03 01:30:46;;;;;;;1.80;1.70;;;;;;;;;;5052724;28;20476;-78
2021/08/03 01:33:13;;;;;;;1.50;1.37;;;;;;;;;;5052974;28;20423;-75
2021/08/03 01:35:42;;;;;;;1.37;1.27;;;;;;;;;;5052596;28;20471;-74
2021/08/03 01:38:08;;;;;;;1.90;1.33;;;;;;;;;;5052679;28;20403;-76
2021/08/03 01:40:35;;;;;;;2.47;2.27;;;;;;;;;;5052717;28;20430;-77
2021/08/03 01:43:02;;;;;;;8.13;1.83;;;;;;;;;;5052475;28;20422;-77
2021/08/03 01:45:28;;;;;;;2.13;1.30;;;;;;;;;;5052677;28;20502;-77
2021/08/03 01:47:55;;;;;;;1.63;1.53;;;;;;;;;;5051381;28;20921;-77
2021/08/03 01:50:22;;;;;;;1.57;1.47;;;;;;;;;;5053063;28;20427;-76
2021/08/03 01:52:49;;;;;;;2.67;1.50;;;;;;;;;;5056409;28;20687;-76
2021/08/03 01:55:15;;;;;;;1.73;1.63;;;;;;;;;;5056523;28;20430;-78
2021/08/03 01:57:42;;;;;;;2.50;1.17;;;;;;;;;;5055017;28;20506;-78
2021/08/03 02:00:09;;;;;;;1.70;1.60;;;;;;;;;;5056496;28;20470;-75
2021/08/03 02:02:35;;;;;;;2.20;1.27;;;;;;;;;;5056372;28;20403;-77
2021/08/03 02:05:01;;;;;;;3.00;1.30;;;;;;;;;;5056493;28;20421;-76
2021/08/03 02:07:27;;;;;;;1.57;1.30;;;;;;;;;;5055920;28;20407;-76
2021/08/03 02:09:54;;;;;;;2.10;1.27;;;;;;;;;;5056315;28;20414;-78
2021/08/03 02:12:20;;;;;;;1.63;1.03;;;;;;;;;;5056091;28;20413;-77
2021/08/03 02:17:49;;;;;;;1.60;1.30;;;;;;;;;;5056224;28;20449;-75
2021/08/03 02:20:15;;;;;;;1.70;1.37;;;;;;;;;;5056126;28;20505;-76
2021/08/03 02:22:41;;;;;;;1.73;1.10;;;;;;;;;;5055831;28;20901;-77
2021/08/03 02:25:09;;;;;;;2.30;1.10;;;;;;;;;;5056168;28;20511;-76
2021/08/03 02:27:36;;;;;;;1.90;1.30;;;;;;;;;;5056046;28;20415;-77
2021/08/03 02:33:09;;;;;;;1.80;1.30;;;;;;;;;;5055897;28;20413;-77
2021/08/03 02:35:42;;;;;;;1.10;1.00;;;;;;;;;;5055673;28;20478;-77
2021/08/03 02:38:10;;;;;;;3.63;1.27;;;;;;;;;;5055510;28;20521;-75
2021/08/03 02:40:37;;;;;;;1.50;1.40;;;;;;;;;;5055795;28;20431;-77
2021/08/03 02:43:03;;;;;;;2.07;1.20;;;;;;;;;;5055540;28;20441;-78
2021/08/03 02:45:30;;;;;;;1.90;1.80;;;;;;;;;;5055731;28;20512;-76
2021/08/03 02:48:09;;;;;;;1.90;1.53;;;;;;;;;;5055850;28;20419;-76
2021/08/03 02:50:35;;;;;;;1.97;1.03;;;;;;;;;;5055968;28;20419;-75
2021/08/03 02:53:05;;;;;;;3.43;2.07;;;;;;;;;;5055331;28;20423;-76
2021/08/03 02:55:37;;;;;;;1.67;1.53;;;;;;;;;;5055718;28;20522;-77
2021/08/03 02:58:04;;;;;;;1.30;1.10;;;;;;;;;;5055288;28;20426;-76
2021/08/03 03:00:32;;;;;;;3.27;1.93;;;;;;;;;;5055587;28;20470;-77
2021/08/03 03:03:00;;;;;;;1.60;1.50;;;;;;;;;;5055403;28;20410;-77
2021/08/03 03:05:27;;;;;;;2.57;1.20;;;;;;;;;;5055379;28;20415;-78
2021/08/03 03:07:54;;;;;;;2.20;2.00;;;;;;;;;;5055101;28;20528;-77
2021/08/03 03:10:24;;;;;;;1.80;1.70;;;;;;;;;;5053945;28;21020;-77
2021/08/03 03:12:53;;;;;;;4.73;1.53;;;;;;;;;;5055353;28;20427;-77
2021/08/03 03:18:23;;;;;;;6.07;1.47;;;;;;;;;;5054928;28;20472;-77
2021/08/03 03:20:49;;;;;;;3.60;1.37;;;;;;;;;;5055406;28;20415;-78
2021/08/03 03:23:17;;;;;;;1.77;1.20;;;;;;;;;;5054676;28;20464;-75
2021/08/03 03:25:43;;;;;;;1.60;1.50;;;;;;;;;;5054972;28;20783;-78
2021/08/03 03:28:09;;;;;;;1.60;1.50;;;;;;;;;;5054712;28;20454;-76
2021/08/03 03:30:36;;;;;;;2.13;1.57;;;;;;;;;;5054792;28;20423;-73
2021/08/03 03:33:04;;;;;;;1.70;1.30;;;;;;;;;;5055076;28;20958;-76
2021/08/03 03:35:31;;;;;;;1.60;1.50;;;;;;;;;;5054758;28;20488;-76
2021/08/03 03:37:58;;;;;;;1.57;1.30;;;;;;;;;;5054208;28;20881;-75
2021/08/03 03:40:25;;;;;;;1.27;1.20;;;;;;;;;;5053204;28;20470;-76
2021/08/03 03:42:52;;;;;;;2.13;1.37;;;;;;;;;;5054218;28;20406;-76
2021/08/03 03:48:24;;;;;;;2.20;1.67;;;;;;;;;;5054242;28;20469;-77
2021/08/03 03:50:51;;;;;;;5.70;1.93;;;;;;;;;;5054208;28;20422;-77
2021/08/03 03:53:20;;;;;;;2.50;1.47;;;;;;;;;;5053974;28;20418;-77
2021/08/03 03:55:54;;;;;;;4.20;1.63;;;;;;;;;;5054216;28;20498;-80
2021/08/03 03:58:20;;;;;;;2.00;1.70;;;;;;;;;;5053884;28;20419;-78
2021/08/03 04:00:48;;;;;;;2.27;1.73;;;;;;;;;;5054192;28;20700;-77
2021/08/03 04:03:16;;;;;;;1.80;1.53;;;;;;;;;;5054048;28;20418;-77
2021/08/03 04:05:42;;;;;;;3.30;1.60;;;;;;;;;;5054075;28;20423;-77
2021/08/03 04:08:08;;;;;;;1.73;1.37;;;;;;;;;;5053801;28;20743;-75
2021/08/03 04:10:35;;;;;;;2.40;1.73;;;;;;;;;;5054105;28;20411;-77
2021/08/03 04:13:01;;;;;;;2.50;1.50;;;;;;;;;;5053345;28;20762;-76
2021/08/03 04:18:30;;;;;;;2.30;2.10;;;;;;;;;;5053887;28;20932;-77
2021/08/03 04:20:56;;;;;;;1.50;1.40;;;;;;;;;;5053874;28;20420;-76
2021/08/03 04:23:22;;;;;;;1.30;1.20;;;;;;;;;;5053472;28;20934;-77
2021/08/03 04:25:48;;;;;;;2.87;1.40;;;;;;;;;;5053983;28;20450;-76
2021/08/03 04:28:14;;;;;;;1.67;1.30;;;;;;;;;;5053638;28;20476;-76
2021/08/03 04:33:44;;;;;;;1.57;1.47;;;;;;;;;;5053751;28;20426;-78
2021/08/03 04:36:10;;;;;;;6.20;2.10;;;;;;;;;;5053454;28;20470;-76
2021/08/03 04:38:36;;;;;;;2.90;1.40;;;;;;;;;;5053329;28;20454;-77
2021/08/03 04:41:02;;;;;;;2.13;1.73;;;;;;;;;;5053465;28;20437;-75
2021/08/03 04:49:15;;;;;;;2.17;1.57;;;;;;;;;;5056557;28;20410;-77
2021/08/03 04:51:41;;;;;;;2.40;1.50;;;;;;;;;;5060685;28;20933;-76
2021/08/03 04:54:07;;;;;;;3.37;1.90;;;;;;;;;;5053791;28;20415;-78
2021/08/03 04:56:33;;;;;;;3.10;1.83;;;;;;;;;;5052053;28;20434;-76
2021/08/03 04:58:59;;;;;;;2.37;1.73;;;;;;;;;;5053044;28;20462;-76
2021/08/03 05:01:25;;;;;;;2.20;2.00;;;;;;;;;;5053144;28;20599;-78
2021/08/03 05:03:51;;;;;;;5.43;1.70;;;;;;;;;;5053126;28;20422;-78
2021/08/03 05:06:17;;;;;;;1.90;1.70;;;;;;;;;;5053092;28;20423;-77
2021/08/03 05:08:43;;;;;;;7.00;1.90;;;;;;;;;;5053868;28;20414;-76
2021/08/03 05:11:09;;;;;;;10.00;1.80;;;;;;;;;;5052876;28;20890;-79
2021/08/03 05:13:35;;;;;;;3.23;2.03;;;;;;;;;;5052960;28;20773;-73
2021/08/03 05:19:04;;;;;;;2.33;1.47;;;;;;;;;;5052886;28;21046;-73
2021/08/03 05:21:30;;;;;;;3.00;1.77;;;;;;;;;;5052931;28;20419;-76
2021/08/03 05:23:56;;;;;;;2.60;1.27;;;;;;;;;;5052720;28;20426;-76
2021/08/03 05:26:22;;;;;;;4.73;1.77;;;;;;;;;;5052925;28;20766;-76
2021/08/03 05:28:48;;;;;;;1.80;1.70;;;;;;;;;;5052468;28;20545;-76
2021/08/03 05:31:14;;;;;;;1.90;1.70;;;;;;;;;;5052750;28;20423;-76
2021/08/03 05:33:40;;;;;;;3.60;1.90;;;;;;;;;;5052649;28;20789;-76
2021/08/03 05:36:07;;;;;;;1.67;1.33;;;;;;;;;;5052432;28;20951;-75
2021/08/03 05:38:33;;;;;;;2.93;1.43;;;;;;;;;;5052210;28;20472;-76
2021/08/03 05:40:59;;;;;;;4.40;1.70;;;;;;;;;;5052623;28;20518;-77
2021/08/03 05:43:25;;;;;;;2.20;1.13;;;;;;;;;;5052569;28;20415;-77
2021/08/03 05:48:54;;;;;;;4.27;1.63;;;;;;;;;;5052523;28;20426;-77
2021/08/03 05:51:20;;;;;;;1.73;1.63;;;;;;;;;;5052531;28;20419;-77
2021/08/03 05:53:46;;;;;;;3.40;1.77;;;;;;;;;;5052320;28;20419;-78
2021/08/03 05:56:12;;;;;;;1.57;1.40;;;;;;;;;;5052394;28;20564;-78
2021/08/03 05:58:38;;;;;;;2.03;1.20;;;;;;;;;;5052537;28;20470;-76
2021/08/03 06:04:07;;;;;;;1.57;1.47;;;;;;;;;;5052407;28;20431;-74
2021/08/03 06:06:41;;;;;;;1.57;1.27;;;;;;;;;;5052452;28;20411;-77
2021/08/03 06:09:14;;;;;;;1.33;1.23;;;;;;;;;;5052446;28;20415;-77
2021/08/03 06:11:49;;;;;;;2.53;1.67;;;;;;;;;;5052673;28;20399;-78
2021/08/03 06:14:19;;;;;;;1.53;1.27;;;;;;;;;;5051131;28;20426;-78
2021/08/03 06:16:51;;;;;;;1.60;1.30;;;;;;;;;;5052261;28;20854;-78
2021/08/03 06:19:17;;;;;;;2.97;1.27;;;;;;;;;;5052211;28;20495;-78
2021/08/03 06:21:44;;;;;;;1.70;1.60;;;;;;;;;;5052231;28;20399;-76
2021/08/03 06:24:11;;;;;;;2.10;1.80;;;;;;;;;;5052042;28;20418;-74
2021/08/03 06:26:43;;;;;;;1.50;1.40;;;;;;;;;;5052181;28;20410;-77
2021/08/03 06:29:09;;;;;;;1.83;1.50;;;;;;;;;;5051143;28;20451;-76
2021/08/03 06:34:39;;;;;;;5.43;2.03;;;;;;;;;;5051572;28;21094;-77
2021/08/03 06:37:06;;;;;;;2.00;1.50;;;;;;;;;;5053392;28;20892;-78
2021/08/03 06:39:32;;;;;;;5.40;1.77;;;;;;;;;;5054824;28;20499;-75
2021/08/03 06:42:08;;;;;;;1.33;1.23;;;;;;;;;;5055582;28;20435;-77
2021/08/03 06:44:44;;;;;;;2.83;1.47;;;;;;;;;;5055691;28;20770;-77
2021/08/03 06:47:11;;;;;;;2.50;1.67;;;;;;;;;;5055894;28;20450;-76
2021/08/03 06:49:45;;;;;;;1.70;1.60;;;;;;;;;;5054179;28;20439;-77
2021/08/03 06:52:13;;;;;;;4.93;1.87;;;;;;;;;;5055350;28;20477;-75
2021/08/03 06:54:40;;;;;;;1.40;1.30;;;;;;;;;;5055098;28;20438;-75
2021/08/03 06:57:09;;;;;;;1.40;1.30;;;;;;;;;;5053078;28;20430;-77
2021/08/03 06:59:38;;;;;;;2.23;2.03;;;;;;;;;;5053799;28;20470;-77
2021/08/03 07:02:04;;;;;;;2.03;1.30;;;;;;;;;;5053244;28;20419;-76
2021/08/03 07:04:36;;;;;;;1.57;1.20;;;;;;;;;;5053797;28;20602;-75
2021/08/03 07:07:03;;;;;;;1.70;1.40;;;;;;;;;;5053929;28;20740;-78
2021/08/03 07:09:30;;;;;;;1.40;1.23;;;;;;;;;;5054052;28;20828;-76
2021/08/03 07:11:57;;;;;;;2.10;1.40;;;;;;;;;;5054195;28;20426;-76
2021/08/03 07:14:29;;;;;;;2.30;1.10;;;;;;;;;;5054942;28;20423;-79
2021/08/03 07:19:59;;;;;;;1.53;1.30;;;;;;;;;;5053700;28;20544;-78
2021/08/03 07:22:25;;;;;;;1.93;1.50;;;;;;;;;;5053300;28;21042;-78
2021/08/03 07:24:52;;;;;;;4.30;1.90;;;;;;;;;;5053501;28;20434;-78
2021/08/03 07:27:18;;;;;;;2.10;1.70;;;;;;;;;;5053111;28;20507;-79
2021/08/03 07:29:44;;;;;;;3.23;1.10;;;;;;;;;;5053330;28;20556;-78
2021/08/03 07:32:12;;;;;;;1.73;1.20;;;;;;;;;;5053480;28;20450;-77
2021/08/03 07:34:39;;;;;;;1.73;1.57;;;;;;;;;;5053319;28;20483;-79
2021/08/03 07:37:05;;;;;;;2.80;1.23;;;;;;;;;;5053476;28;20411;-77
2021/08/03 07:39:32;;;;;;;1.90;1.30;;;;;;;;;;5053207;28;20466;-80
2021/08/03 07:41:58;;;;;;;1.77;1.40;;;;;;;;;;5051911;28;20427;-73
2021/08/03 07:44:24;;;;;;;1.50;1.37;;;;;;;;;;5053255;28;20502;-77
2021/08/03 07:49:53;;;;;;;1.53;1.43;;;;;;;;;;5057934;28;20476;-78
2021/08/03 07:52:20;;;;;;;1.30;1.20;;;;;;;;;;5061452;28;20886;-77
2021/08/03 07:54:46;;;;;;;7.73;2.90;;;;;;;;;;5055524;28;20510;-75
2021/08/03 07:57:12;;;;;;;2.70;1.10;;;;;;;;;;5052989;28;20415;-75
2021/08/03 07:59:38;;;;;;;4.23;1.70;;;;;;;;;;5052008;28;20486;-79
2021/08/03 08:05:08;;;;;;;1.10;1.00;;;;;;;;;;5052979;28;20978;-78
2021/08/03 08:07:34;;;;;;;5.90;1.50;;;;;;;;;;5052425;28;20811;-78
2021/08/03 08:10:00;;;;;;;3.33;1.33;;;;;;;;;;5051630;28;20502;-77
2021/08/03 08:12:26;;;;;;;1.57;1.30;;;;;;;;;;5052618;28;20527;-81
2021/08/03 08:14:51;;;;;;;1.57;1.47;;;;;;;;;;5051334;28;20560;-79
2021/08/03 08:17:18;;;;;;;1.53;1.30;;;;;;;;;;5051462;28;20441;-78
2021/08/03 08:19:44;;;;;;;5.10;1.47;;;;;;;;;;5052472;28;20579;-77
2021/08/03 08:22:11;;;;;;;3.63;1.37;;;;;;;;;;5051443;28;20475;-75
2021/08/03 08:24:37;;;;;;;1.30;1.20;;;;;;;;;;5051688;28;20473;-78
2021/08/03 08:27:03;;;;;;;1.30;1.20;;;;;;;;;;5051182;28;20438;-78
2021/08/03 08:29:29;;;;;;;1.40;1.30;;;;;;;;;;5052458;28;20423;-76
2021/08/03 08:34:58;;;;;;;1.30;1.20;;;;;;;;;;5051783;28;20574;-75
2021/08/03 08:37:24;;;;;;;1.53;1.33;;;;;;;;;;5051481;28;20458;-78
2021/08/03 08:39:50;;;;;;;2.53;1.40;;;;;;;;;;5051842;28;20466;-77
2021/08/03 08:42:17;;;;;;;3.43;1.40;;;;;;;;;;5052020;28;20416;-77
2021/08/03 08:44:48;;;;;;;1.50;1.40;;;;;;;;;;5052121;28;20802;-77
2021/08/03 08:50:21;;;;;;;1.23;1.13;;;;;;;;;;5051822;28;20405;-78
2021/08/03 08:52:53;;;;;;;1.50;1.40;;;;;;;;;;5051320;28;20533;-77
2021/08/03 08:55:20;;;;;;;1.40;1.30;;;;;;;;;;5051812;28;20411;-77
2021/08/03 08:57:51;;;;;;;3.30;1.63;;;;;;;;;;5051761;28;20442;-77
2021/08/03 09:00:19;;;;;;;1.60;1.47;;;;;;;;;;5051346;28;20473;-76
2021/08/03 09:02:46;;;;;;;5.63;1.40;;;;;;;;;;5052195;28;20418;-76
2021/08/03 09:05:13;;;;;;;1.60;1.40;;;;;;;;;;5051255;28;20427;-77
2021/08/03 09:07:52;;;;;;;1.70;1.60;;;;;;;;;;5051126;28;20426;-77
2021/08/03 09:10:28;;;;;;;1.33;1.23;;;;;;;;;;5051629;28;20488;-79
2021/08/03 09:13:03;;;;;;;1.47;1.37;;;;;;;;;;5051222;28;20407;-75
2021/08/03 09:15:29;;;;;;;1.50;1.40;;;;;;;;;;5051131;28;21103;-79
2021/08/03 09:18:09;;;;;;;1.47;1.37;;;;;;;;;;5051042;28;20771;-75
2021/08/03 09:20:35;;;;;;;1.40;1.30;;;;;;;;;;5051346;28;20560;-78
2021/08/03 09:23:01;;;;;;;1.40;1.30;;;;;;;;;;5052315;28;20738;-77
2021/08/03 09:25:27;;;;;;;1.83;1.43;;;;;;;;;;5052683;28;20415;-75
2021/08/03 09:27:53;;;;;;;1.73;1.50;;;;;;;;;;5051201;28;20419;-70
2021/08/03 09:30:19;;;;;;;1.80;1.33;;;;;;;;;;5051204;28;20415;-70
2021/08/03 09:32:48;;;;;;;1.97;1.50;;;;;;;;;;5050940;28;20469;-70
2021/08/03 09:35:14;;;;;;;2.23;1.67;;;;;;;;;;5050946;28;20470;-70
2021/08/03 09:37:40;;;;;;;1.63;1.50;;;;;;;;;;5050596;28;20502;-70
2021/08/03 09:40:26;;;;;;;2.00;1.80;;;;;;;;;;5051486;28;20477;-71
2021/08/03 09:42:58;;;;;;;1.40;1.30;;;;;;;;;;5051106;28;20411;-71
2021/08/03 09:45:25;;;;;;;2.47;1.50;;;;;;;;;;5050952;28;20510;-70
2021/08/03 09:47:51;;;;;;;4.53;1.67;;;;;;;;;;5050907;28;20430;-71
2021/08/03 09:50:19;;;;;;;1.70;1.53;;;;;;;;;;5050916;28;20423;-71
2021/08/03 09:52:49;;;;;;;1.60;1.40;;;;;;;;;;5050492;28;20771;-71
2021/08/03 09:55:16;;;;;;;2.03;1.83;;;;;;;;;;5050774;28;20465;-71
2021/08/03 09:57:42;;;;;;;1.80;1.70;;;;;;;;;;5051137;28;20766;-71
2021/08/03 10:00:25;;;;;;;1.83;1.73;;;;;;;;;;5050790;28;20482;-70
2021/08/03 10:05:55;;;;;;;1.97;1.87;;;;;;;;;;5050916;28;20413;-71
2021/08/03 10:08:21;;;;;;;1.67;1.57;;;;;;;;;;5050404;28;20459;-71
2021/08/03 10:10:47;;;;;;;4.20;2.20;;;;;;;;;;5050729;28;20831;-70
2021/08/03 10:13:13;;;;;;;2.20;1.60;;;;;;;;;;5053872;28;20838;-70
2021/08/03 10:15:40;;;;;;;2.70;1.70;;;;;;;;;;5054673;28;20958;-71
2021/08/03 10:18:06;;;;;;;2.60;1.30;;;;;;;;;;5054431;28;20411;-70
2021/08/03 10:20:40;;;;;;;4.70;1.90;;;;;;;;;;5053041;28;20475;-71
2021/08/03 10:23:07;;;;;;;1.20;1.10;;;;;;;;;;5053948;28;20422;-71
2021/08/03 10:25:36;;;;;;;1.40;1.30;;;;;;;;;;5054196;28;20419;-70
2021/08/03 10:28:25;;;;;;;2.13;1.20;;;;;;;;;;5054229;28;20407;-71
2021/08/03 10:30:52;;;;;;;1.90;1.60;;;;;;;;;;5054744;28;20500;-71
2021/08/03 10:33:37;;;;;;;4.00;1.60;;;;;;;;;;5054467;28;20399;-70
2021/08/03 10:36:03;;;;;;;2.50;1.33;;;;;;;;;;5053748;28;20462;-70
2021/08/03 10:38:29;;;;;;;1.50;1.40;;;;;;;;;;5053516;28;20900;-71
2021/08/03 10:41:00;;;;;;;1.43;1.33;;;;;;;;;;5053979;28;20422;-70
2021/08/03 10:43:27;;;;;;;2.53;1.50;;;;;;;;;;5054032;28;20877;-70
2021/08/03 10:46:08;;;;;;;2.10;1.60;;;;;;;;;;5053918;28;20510;-69
2021/08/03 10:48:37;;;;;;;2.00;1.50;;;;;;;;;;5053938;28;20423;-71
2021/08/03 10:51:15;;;;;;;2.10;1.60;;;;;;;;;;5053801;28;20443;-70
2021/08/03 10:54:00;;;;;;;1.70;1.53;;;;;;;;;;5053505;28;20427;-70
2021/08/03 10:56:26;;;;;;;2.83;2.20;;;;;;;;;;5054136;28;20509;-70
2021/08/03 10:59:12;;;;;;;2.10;1.90;;;;;;;;;;5053589;28;20474;-70
2021/08/03 11:01:45;;;;;;;2.47;1.93;;;;;;;;;;5053490;28;20438;-70
2021/08/03 11:04:31;;;;;;;2.40;2.20;;;;;;;;;;5052328;28;20506;-70
2021/08/03 11:07:17;;;;;;;1.97;1.73;;;;;;;;;;5053406;28;20419;-71
2021/08/03 11:09:43;;;;;;;2.97;2.10;;;;;;;;;;5053318;28;20620;-71
2021/08/03 11:12:27;;;;;;;2.10;1.70;;;;;;;;;;5053710;28;20455;-70
2021/08/03 11:14:53;;;;;;;2.07;1.87;;;;;;;;;;5053376;28;20419;-71
2021/08/03 11:17:39;;;;;;;2.20;2.00;;;;;;;;;;5053059;28;20757;-70
2021/08/03 11:20:05;;;;;;;2.03;1.83;;;;;;;;;;5052730;28;20478;-70
2021/08/03 11:22:51;;;;;;;2.10;1.50;;;;;;;;;;5051210;28;20426;-70
2021/08/03 11:25:18;;;;;;;1.90;1.80;;;;;;;;;;5053071;28;20918;-71
2021/08/03 11:27:44;;;;;;;2.70;2.30;;;;;;;;;;5053117;28;20561;-70
2021/08/03 11:30:10;;;;;;;2.80;2.10;;;;;;;;;;5053024;28;20503;-71
2021/08/03 11:32:36;;;;;;;2.40;1.87;;;;;;;;;;5053004;28;20717;-70
2021/08/03 11:35:02;;;;;;;3.43;1.57;;;;;;;;;;5052838;28;20561;-70
2021/08/03 11:37:29;;;;;;;1.80;1.70;;;;;;;;;;5052608;28;20415;-70
2021/08/03 11:39:58;;;;;;;1.87;1.77;;;;;;;;;;5052282;28;20524;-71
2021/08/03 11:42:40;;;;;;;2.30;1.40;;;;;;;;;;5052459;28;20399;-70
2021/08/03 11:45:11;;;;;;;2.43;2.23;;;;;;;;;;5052712;28;20781;-70
2021/08/03 11:47:45;;;;;;;2.77;1.10;;;;;;;;;;5052576;28;20419;-70
2021/08/03 11:50:12;;;;;;;2.03;1.70;;;;;;;;;;5051492;28;20431;-69
2021/08/03 11:52:38;;;;;;;1.80;1.70;;;;;;;;;;5052399;28;20398;-70
2021/08/03 11:55:04;;;;;;;3.23;1.67;;;;;;;;;;5052584;28;20423;-71
2021/08/03 11:57:30;;;;;;;1.97;1.10;;;;;;;;;;5053020;28;20518;-71
2021/08/03 12:00:16;;;;;;;1.87;1.50;;;;;;;;;;5052639;28;20558;-70
2021/08/03 12:02:43;;;;;;;1.60;1.30;;;;;;;;;;5052373;28;20941;-70
2021/08/03 12:05:13;;;;;;;2.50;1.10;;;;;;;;;;5052544;28;20422;-70
2021/08/03 12:07:40;;;;;;;2.10;1.43;;;;;;;;;;5051847;28;20788;-71
2021/08/03 12:10:07;;;;;;;1.80;1.47;;;;;;;;;;5052389;28;20465;-70
2021/08/03 12:12:41;;;;;;;1.70;1.60;;;;;;;;;;5052088;28;20498;-70
2021/08/03 12:15:08;;;;;;;2.50;1.80;;;;;;;;;;5052388;28;20415;-71
2021/08/03 12:17:36;;;;;;;2.27;1.67;;;;;;;;;;5052172;28;20410;-70
2021/08/03 12:20:20;;;;;;;1.50;1.40;;;;;;;;;;5050648;28;20486;-70
2021/08/03 12:22:46;;;;;;;2.23;1.57;;;;;;;;;;5051601;28;20945;-70
2021/08/03 12:25:12;;;;;;;2.10;1.50;;;;;;;;;;5047206;28;20409;-69
2021/08/03 12:27:39;;;;;;;1.47;1.33;;;;;;;;;;5051923;28;20513;-70
2021/08/03 12:30:06;;;;;;;1.20;1.10;;;;;;;;;;5052018;28;20407;-70
2021/08/03 12:32:39;;;;;;;1.60;1.50;;;;;;;;;;5050274;28;20411;-70
2021/08/03 12:35:09;;;;;;;1.40;1.30;;;;;;;;;;5050466;28;20993;-70
2021/08/03 12:37:35;;;;;;;1.17;1.00;;;;;;;;;;5050844;28;20442;-72
2021/08/03 12:40:01;;;;;;;1.00;1.00;;;;;;;;;;5051010;28;20470;-70
2021/08/03 12:44:59;;;;;;;0.93;0.70;;;;;;;;;;5050962;28;20909;-70
2021/08/03 12:47:26;;;;;;;1.30;1.20;;;;;;;;;;5049816;28;20422;-70
2021/08/03 12:50:09;;;;;;;1.10;1.00;;;;;;;;;;5051362;28;20497;-70
2021/08/03 12:52:35;;;;;;;1.10;1.00;;;;;;;;;;5049458;28;21051;-70
2021/08/03 12:55:03;;;;;;;1.87;1.30;;;;;;;;;;5050897;28;20414;-71
2021/08/03 12:57:47;;;;;;;1.40;0.90;;;;;;;;;;5050727;28;20917;-72
2021/08/03 13:00:33;;;;;;;1.23;1.00;;;;;;;;;;5050879;28;20462;-71
2021/08/03 13:03:00;;;;;;;2.17;1.03;;;;;;;;;;5050407;28;20423;-72
2021/08/03 13:05:26;;;;;;;1.63;1.10;;;;;;;;;;5050774;28;20423;-72
2021/08/03 13:07:52;;;;;;;1.10;1.00;;;;;;;;;;5050481;28;20426;-70
2021/08/03 13:10:18;;;;;;;1.50;1.30;;;;;;;;;;5050709;28;20422;-70
2021/08/03 13:12:44;;;;;;;1.10;1.00;;;;;;;;;;5050827;28;20419;-70
2021/08/03 13:15:11;;;;;;;1.43;1.00;;;;;;;;;;5050494;28;20494;-71
2021/08/03 13:17:37;;;;;;;0.93;0.93;;;;;;;;;;5049171;28;20447;-71
2021/08/03 13:20:03;;;;;;;0.87;0.80;;;;;;;;;;5050390;28;20516;-71
2021/08/03 13:22:29;;;;;;;0.97;0.70;;;;;;;;;;5050150;28;20977;-70
2021/08/03 13:24:55;;;;;;;2.20;0.73;;;;;;;;;;5051044;28;20419;-70
2021/08/03 13:27:21;;;;;;;2.20;0.90;;;;;;;;;;5046963;28;20929;-70
2021/08/03 13:29:47;;;;;;;1.67;1.20;;;;;;;;;;5049230;28;20433;-71
2021/08/03 13:32:13;;;;;;;2.23;0.90;;;;;;;;;;5049015;28;20418;-70
2021/08/03 13:34:39;;;;;;;1.30;0.97;;;;;;;;;;5048160;28;20896;-69
2021/08/03 13:37:05;;;;;;;1.50;1.30;;;;;;;;;;5049208;28;20457;-70
2021/08/03 13:39:34;;;;;;;3.00;1.10;;;;;;;;;;5048886;28;20474;-69
2021/08/03 13:42:00;;;;;;;1.73;0.93;;;;;;;;;;5049162;28;20418;-70
2021/08/03 13:44:26;;;;;;;1.00;1.00;;;;;;;;;;5048935;28;20418;-69
2021/08/03 13:46:52;;;;;;;1.23;1.03;;;;;;;;;;5050710;28;20407;-68
2021/08/03 13:52:22;;;;;;;0.90;0.90;;;;;;;;;;5052756;28;20422;-70
2021/08/03 13:54:48;;;;;;;1.33;1.03;;;;;;;;;;5053256;28;20426;-70
2021/08/03 13:57:14;;;;;;;1.03;0.93;;;;;;;;;;5052975;28;20419;-70
2021/08/03 13:59:40;;;;;;;1.60;1.10;;;;;;;;;;5051724;28;20474;-69
2021/08/03 14:02:06;;;;;;;1.17;1.07;;;;;;;;;;5052563;28;20407;-70
2021/08/03 14:04:33;;;;;;;1.47;1.10;;;;;;;;;;5052945;28;20427;-69
2021/08/03 14:07:02;;;;;;;1.13;1.03;;;;;;;;;;5051480;28;20423;-68
2021/08/03 14:09:29;;;;;;;1.17;0.90;;;;;;;;;;5052395;28;20415;-71
2021/08/03 14:11:55;;;;;;;1.53;0.87;;;;;;;;;;5053240;28;20427;-72
2021/08/03 14:14:21;;;;;;;1.27;0.90;;;;;;;;;;5052576;28;20760;-71
2021/08/03 14:16:47;;;;;;;1.00;0.90;;;;;;;;;;5052720;28;20411;-71
2021/08/03 14:22:16;;;;;;;1.83;1.23;;;;;;;;;;5052331;28;20422;-69
2021/08/03 14:24:42;;;;;;;1.10;1.00;;;;;;;;;;5051326;28;20423;-69
2021/08/03 14:27:08;;;;;;;1.47;1.10;;;;;;;;;;5052343;28;20434;-69
2021/08/03 14:29:37;;;;;;;1.27;1.10;;;;;;;;;;5052447;28;20422;-70
2021/08/03 14:32:04;;;;;;;1.43;1.33;;;;;;;;;;5052514;28;20429;-69
2021/08/03 14:37:33;;;;;;;2.03;1.50;;;;;;;;;;5051805;28;20425;-69
2021/08/03 14:39:59;;;;;;;0.97;0.87;;;;;;;;;;5052186;28;20470;-70
2021/08/03 14:42:26;;;;;;;1.07;0.97;;;;;;;;;;5052579;28;20490;-70
2021/08/03 14:44:52;;;;;;;1.07;1.03;;;;;;;;;;5052380;28;20453;-70
2021/08/03 14:47:18;;;;;;;2.23;0.90;;;;;;;;;;5050647;28;20427;-70
2021/08/03 14:52:47;;;;;;;1.13;1.03;;;;;;;;;;5051860;28;20955;-70
2021/08/03 14:55:14;;;;;;;1.10;0.60;;;;;;;;;;5052122;28;20447;-70
2021/08/03 14:57:40;;;;;;;1.10;1.00;;;;;;;;;;5051290;28;20939;-70
2021/08/03 15:00:07;;;;;;;1.97;1.00;;;;;;;;;;5051953;28;20466;-70
2021/08/03 15:02:33;;;;;;;1.20;0.93;;;;;;;;;;5051765;28;20935;-70
2021/08/03 15:04:58;;;;;;;1.23;0.87;;;;;;;;;;5052095;28;20417;-69
2021/08/03 15:07:24;;;;;;;1.20;0.93;;;;;;;;;;5051831;28;20499;-70
2021/08/03 15:09:56;;;;;;;0.70;0.60;;;;;;;;;;5052783;28;20411;-70
2021/08/03 15:12:22;;;;;;;1.13;1.03;;;;;;;;;;5052891;28;20411;-71
2021/08/03 15:14:48;;;;;;;2.40;0.80;;;;;;;;;;5051491;28;20781;-70
2021/08/03 15:17:15;;;;;;;1.00;0.90;;;;;;;;;;5052983;28;20490;-69
2021/08/03 15:22:45;;;;;;;0.70;0.67;;;;;;;;;;5052890;28;20994;-70
2021/08/03 15:25:11;;;;;;;1.07;0.97;;;;;;;;;;5053078;28;20407;-69
2021/08/03 15:27:37;;;;;;;0.80;0.80;;;;;;;;;;5052929;28;20481;-70
2021/08/03 15:30:03;;;;;;;1.13;1.03;;;;;;;;;;5053121;28;20909;-70
2021/08/03 15:32:29;;;;;;;0.80;0.63;;;;;;;;;;5051678;28;20438;-69
2021/08/03 15:37:58;;;;;;;1.20;1.10;;;;;;;;;;5052917;28;20460;-69
2021/08/03 15:40:25;;;;;;;1.50;0.80;;;;;;;;;;5052967;28;20478;-70
2021/08/03 15:42:51;;;;;;;0.80;0.60;;;;;;;;;;5052844;28;20415;-70
2021/08/03 15:45:17;;;;;;;1.13;1.03;;;;;;;;;;5053077;28;20422;-69
2021/08/03 15:47:43;;;;;;;1.40;1.30;;;;;;;;;;5052810;28;20774;-69
2021/08/03 15:53:12;;;;;;;1.33;0.67;;;;;;;;;;5052443;28;20448;-71
2021/08/03 15:55:38;;;;;;;1.20;1.10;;;;;;;;;;5053187;28;20407;-70
2021/08/03 15:58:05;;;;;;;2.13;1.00;;;;;;;;;;5052581;28;20461;-70
2021/08/03 16:00:31;;;;;;;3.50;1.33;;;;;;;;;;5052282;28;20469;-69
2021/08/03 16:02:57;;;;;;;1.27;0.93;;;;;;;;;;5052051;28;20465;-70
2021/08/03 16:08:27;;;;;;;2.57;1.10;;;;;;;;;;5051956;28;20414;-68
2021/08/03 16:10:53;;;;;;;1.57;1.13;;;;;;;;;;5051624;28;20488;-69
2021/08/03 16:13:19;;;;;;;1.90;0.90;;;;;;;;;;5051248;28;20415;-70
2021/08/03 16:15:51;;;;;;;1.17;1.07;;;;;;;;;;5051122;28;20411;-70
2021/08/03 16:18:18;;;;;;;1.47;1.37;;;;;;;;;;5052662;28;20462;-71
2021/08/03 16:20:45;;;;;;;1.30;1.10;;;;;;;;;;5052953;28;20877;-70